EFKI

Kajaani Airport

Kajaani, Finland
METAR EFKI 180020Z AUTO 24009KT 200V270 9999 OVC010 10/09 Q1008
Observed Flight Rules
Oct-18 @ 00:20 UTC (24 minutes ago) Marginal Visual Flight Rules
Wind Visibility Clouds
240° at 9 knots 10,000+ meters
  • Overcast at 1,000' AGL
Temperatures Readings
Current 10°C / 50°F
Dewpoint 9°C / 48°F
Humidity 94%
Altimeter 29.76" Hg
Pressure 1008 hPa
Elevation 136
METAR EFKI 180020Z AUTO 24009KT 200V270 9999 OVC010 10/09 Q1008
Observed Flight Rules
Oct-18 @ 00:20 UTC
(24 minutes ago)
MVFR
Wind Visibility
240° at 9 knots 10,000+ meters
Clouds
  • Overcast at 1,000' AGL
Temperature Dewpoint
10°C / 50°F 9°C / 48°F
Humidity Altimeter Pressure
94% 29.76" Hg 1008 hPa